KSLC/SLC METAR and TAF weather

Enter ICAO airport designator
Station Type Date Time Source
KSLC METAR 2019/12/08 23:54 UTC NOAA

KSLC 082354Z 17004KT 10SM SCT045 BKN090 05/03 A2993 RMK AO2 SLP138 60001 T00500028 10056 20022 53000 $


Station Type Date Time Source
KSLC Decoded METAR 2019/12/08 23:54 UTC NOAA

SALT LAKE CITY INTERNATIONAL AIRPORT , UT, United States (KSLC) 40-47N 111-58W 1286M
Dec 08, 2019 - 06:54 PM EST / 2019.12.08 2354 UTC
Wind: from the S (170 degrees) at 5 MPH (4 KT):0
Visibility: 10 mile(s):0
Sky conditions: mostly cloudy
Temperature: 41.0 F (5.0 C)
Dew Point: 37.0 F (2.8 C)
Relative Humidity: 85%
Pressure (altimeter): 29.93 in. Hg (1013 hPa)
Pressure tendency: 0.00 inches (0.0 hPa) higher than three hours ago
ob: KSLC 082354Z 17004KT 10SM SCT045 BKN090 05/03 A2993 RMK AO2 SLP138 60001 T00500028 10056 20022 53000
cycle: 0

Station Type Date Time Source
KSLC TAF 2019/12/08 21:18 UTC NOAA

TAF
AMD KSLC 082115Z 0821/0924 16006KT P6SM VCSH BKN050 BKN060
FM091200 33005KT P6SM SCT060 BKN120

Example: see airport list